Time,TemperatureF,DewpointF,PressureIn,WindDirection,WindDirectionDegrees,WindSpeedMPH,WindSpeedGustMPH,Humidity,HourlyPrecipIn,Conditions,Clouds,dailyrainin,SoftwareType,DateUTC
2013-11-14 00:00:00,33.9,27.8,30.38,SSE,151,0.0,0.0,78,0.00,,,0.00,Wunderground v.1.15,2013-11-14 06:00:00,
2013-11-14 00:10:00,33.6,27.8,30.38,SSE,151,0.0,0.0,79,0.00,,,0.00,Wunderground v.1.15,2013-11-14 06:10:00,
2013-11-14 00:20:00,33.5,27.7,30.38,SSE,151,0.0,0.0,79,0.00,,,0.00,Wunderground v.1.15,2013-11-14 06:20:00,
2013-11-14 00:30:00,33.4,27.6,30.38,SSE,151,0.0,0.0,79,0.00,,,0.00,Wunderground v.1.15,2013-11-14 06:30:00,
2013-11-14 00:40:00,33.1,27.6,30.38,SSE,151,0.0,0.0,80,0.00,,,0.00,Wunderground v.1.15,2013-11-14 06:40:00,
2013-11-14 00:50:00,33.0,27.5,30.37,SSE,151,0.0,0.0,80,0.00,,,0.00,Wunderground v.1.15,2013-11-14 06:50:00,
2013-11-14 01:00:00,32.9,27.1,30.37,SSE,151,0.0,0.0,79,0.00,,,0.00,Wunderground v.1.15,2013-11-14 07:00:00,
2013-11-14 01:10:00,32.5,27.0,30.37,SSE,151,0.0,0.0,80,0.00,,,0.00,Wunderground v.1.15,2013-11-14 07:10:00,
2013-11-14 01:20:00,32.2,27.3,30.36,SSE,151,0.0,0.0,82,0.00,,,0.00,Wunderground v.1.15,2013-11-14 07:20:00,
2013-11-14 01:30:00,32.1,27.2,30.36,SSE,151,0.0,0.0,82,0.00,,,0.00,Wunderground v.1.15,2013-11-14 07:30:00,
2013-11-14 01:40:00,31.9,27.0,30.35,SSE,151,0.0,0.0,82,0.00,,,0.00,Wunderground v.1.15,2013-11-14 07:40:00,
2013-11-14 01:50:00,31.7,27.1,30.35,SSE,151,0.0,0.0,83,0.00,,,0.00,Wunderground v.1.15,2013-11-14 07:50:00,
2013-11-14 02:00:00,31.5,26.6,30.35,SSE,151,0.0,0.0,82,0.00,,,0.00,Wunderground v.1.15,2013-11-14 08:00:00,
2013-11-14 02:10:00,31.3,26.7,30.34,SSE,151,0.0,0.0,83,0.00,,,0.00,Wunderground v.1.15,2013-11-14 08:10:00,
2013-11-14 02:20:00,31.4,27.1,30.34,SSE,151,0.0,0.0,84,0.00,,,0.00,Wunderground v.1.15,2013-11-14 08:20:00,
2013-11-14 02:30:00,31.8,27.5,30.33,SSE,151,0.0,0.0,84,0.00,,,0.00,Wunderground v.1.15,2013-11-14 08:30:00,
2013-11-14 02:40:00,32.3,27.7,30.33,SSE,151,0.0,0.0,83,0.00,,,0.00,Wunderground v.1.15,2013-11-14 08:40:00,
2013-11-14 02:50:00,32.8,27.9,30.33,SSE,151,0.0,0.0,82,0.00,,,0.00,Wunderground v.1.15,2013-11-14 08:50:00,
2013-11-14 03:00:00,32.9,27.7,30.32,SSE,151,0.0,0.0,81,0.00,,,0.00,Wunderground v.1.15,2013-11-14 09:00:00,
2013-11-14 03:10:00,33.0,27.8,30.32,SSE,151,0.0,0.0,81,0.00,,,0.00,Wunderground v.1.15,2013-11-14 09:10:00,
2013-11-14 03:20:00,33.1,28.2,30.32,SSE,151,0.0,0.0,82,0.00,,,0.00,Wunderground v.1.15,2013-11-14 09:20:00,
2013-11-14 03:30:00,33.2,28.3,30.32,SSE,151,0.0,0.0,82,0.00,,,0.00,Wunderground v.1.15,2013-11-14 09:30:00,
2013-11-14 03:40:00,33.2,28.0,30.32,SSE,151,0.0,0.0,81,0.00,,,0.00,Wunderground v.1.15,2013-11-14 09:40:00,
2013-11-14 03:50:00,33.3,28.1,30.32,SSE,151,0.0,0.0,81,0.00,,,0.00,Wunderground v.1.15,2013-11-14 09:50:00,
2013-11-14 04:00:00,33.3,28.1,30.31,SSE,151,0.0,0.0,81,0.00,,,0.00,Wunderground v.1.15,2013-11-14 10:00:00,
2013-11-14 04:10:00,33.3,28.1,30.31,SSE,151,0.0,0.0,81,0.00,,,0.00,Wunderground v.1.15,2013-11-14 10:10:00,
2013-11-14 04:20:00,33.1,27.6,30.30,SSE,151,0.0,0.0,80,0.00,,,0.00,Wunderground v.1.15,2013-11-14 10:20:00,
2013-11-14 04:30:00,32.8,27.6,30.30,SSE,151,0.0,0.0,81,0.00,,,0.00,Wunderground v.1.15,2013-11-14 10:30:00,
2013-11-14 04:40:00,32.6,27.4,30.30,SSE,151,0.0,0.0,81,0.00,,,0.00,Wunderground v.1.15,2013-11-14 10:40:00,
2013-11-14 04:50:00,32.5,27.6,30.29,SSE,151,0.0,0.0,82,0.00,,,0.00,Wunderground v.1.15,2013-11-14 10:50:00,
2013-11-14 05:00:00,32.3,27.4,30.29,SSE,151,0.0,0.0,82,0.00,,,0.00,Wunderground v.1.15,2013-11-14 11:00:00,
2013-11-14 05:10:00,32.1,27.2,30.28,SSE,151,0.0,0.0,82,0.00,,,0.00,Wunderground v.1.15,2013-11-14 11:10:00,
2013-11-14 05:20:00,31.9,27.3,30.28,SSE,151,0.0,0.0,83,0.00,,,0.00,Wunderground v.1.15,2013-11-14 11:20:00,
2013-11-14 05:30:00,31.7,27.1,30.27,SSE,151,0.0,0.0,83,0.00,,,0.00,Wunderground v.1.15,2013-11-14 11:30:00,
2013-11-14 05:40:00,31.5,27.2,30.27,SSE,151,0.0,0.0,84,0.00,,,0.00,Wunderground v.1.15,2013-11-14 11:40:00,
2013-11-14 05:50:00,31.5,27.2,30.27,SSE,151,0.0,0.0,84,0.00,,,0.00,Wunderground v.1.15,2013-11-14 11:50:00,
2013-11-14 06:00:00,31.4,27.1,30.27,SSE,151,0.0,0.0,84,0.00,,,0.00,Wunderground v.1.15,2013-11-14 12:00:00,
2013-11-14 06:10:00,31.6,27.3,30.27,SSE,151,0.0,0.0,84,0.00,,,0.00,Wunderground v.1.15,2013-11-14 12:10:00,
2013-11-14 06:20:00,31.8,27.5,30.27,SSE,151,0.0,0.0,84,0.00,,,0.00,Wunderground v.1.15,2013-11-14 12:20:00,
2013-11-14 06:30:00,32.1,27.8,30.27,SSE,151,0.0,0.0,84,0.00,,,0.00,Wunderground v.1.15,2013-11-14 12:30:00,
2013-11-14 06:40:00,32.7,28.1,30.26,SSE,151,0.0,0.0,83,0.00,,,0.00,Wunderground v.1.15,2013-11-14 12:40:00,
2013-11-14 06:50:00,33.2,28.6,30.26,SSE,151,0.0,0.0,83,0.00,,,0.00,Wunderground v.1.15,2013-11-14 12:50:00,
2013-11-14 07:00:00,33.5,28.6,30.27,SSE,151,0.0,0.0,82,0.00,,,0.00,Wunderground v.1.15,2013-11-14 13:00:00,
2013-11-14 07:10:00,34.0,28.8,30.27,SSE,151,0.0,0.0,81,0.00,,,0.00,Wunderground v.1.15,2013-11-14 13:10:00,
2013-11-14 07:20:00,34.6,30.0,30.27,SSE,151,0.0,0.0,83,0.00,,,0.00,Wunderground v.1.15,2013-11-14 13:20:00,
2013-11-14 07:30:00,34.8,30.2,30.26,SSE,151,0.0,0.0,83,0.00,,,0.00,Wunderground v.1.15,2013-11-14 13:30:00,
2013-11-14 07:40:00,35.3,30.1,30.26,SSE,151,0.0,0.0,81,0.00,,,0.00,Wunderground v.1.15,2013-11-14 13:40:00,
2013-11-14 07:50:00,36.1,30.5,30.25,SSE,151,1.0,1.0,80,0.00,,,0.00,Wunderground v.1.15,2013-11-14 13:50:00,
2013-11-14 08:00:00,36.6,31.0,30.25,SSE,151,1.0,1.0,80,0.00,,,0.00,Wunderground v.1.15,2013-11-14 14:00:00,
2013-11-14 08:10:00,37.2,31.6,30.25,SSE,151,0.0,0.0,80,0.00,,,0.00,Wunderground v.1.15,2013-11-14 14:10:00,
2013-11-14 08:20:00,38.8,32.5,30.24,SSE,151,0.0,5.0,78,0.00,,,0.00,Wunderground v.1.15,2013-11-14 14:20:00,
2013-11-14 08:30:00,40.4,32.1,30.24,SSE,154,6.0,7.0,72,0.00,,,0.00,Wunderground v.1.15,2013-11-14 14:30:00,
2013-11-14 08:40:00,42.0,33.3,30.23,SSE,153,5.0,8.0,71,0.00,,,0.00,Wunderground v.1.15,2013-11-14 14:40:00,
2013-11-14 08:50:00,44.1,30.7,30.23,South,172,8.0,11.0,59,0.00,,,0.00,Wunderground v.1.15,2013-11-14 14:50:00,
2013-11-14 09:00:00,44.6,29.4,30.22,South,169,10.0,10.0,55,0.00,,,0.00,Wunderground v.1.15,2013-11-14 15:00:00,
2013-11-14 09:10:00,44.9,29.7,30.23,South,174,9.0,10.0,55,0.00,,,0.00,Wunderground v.1.15,2013-11-14 15:10:00,
2013-11-14 09:20:00,45.3,28.7,30.23,South,181,8.0,9.0,52,0.00,,,0.00,Wunderground v.1.15,2013-11-14 15:20:00,
2013-11-14 09:30:00,46.8,29.6,30.23,South,181,7.0,8.0,51,0.00,,,0.00,Wunderground v.1.15,2013-11-14 15:30:00,
2013-11-14 09:40:00,48.0,29.7,30.23,South,183,8.0,8.0,49,0.00,,,0.00,Wunderground v.1.15,2013-11-14 15:40:00,
2013-11-14 09:50:00,48.9,29.0,30.22,SSE,163,6.0,10.0,46,0.00,,,0.00,Wunderground v.1.15,2013-11-14 15:50:00,
2013-11-14 10:00:00,49.6,28.6,30.22,South,175,8.0,8.0,44,0.00,,,0.00,Wunderground v.1.15,2013-11-14 16:00:00,
2013-11-14 10:10:00,49.5,29.6,30.21,SSE,161,10.0,11.0,46,0.00,,,0.00,Wunderground v.1.15,2013-11-14 16:10:00,
2013-11-14 10:20:00,50.6,30.0,30.21,South,174,9.0,9.0,45,0.00,,,0.00,Wunderground v.1.15,2013-11-14 16:20:00,
2013-11-14 10:30:00,51.6,31.5,30.21,SW,214,7.0,8.0,46,0.00,,,0.00,Wunderground v.1.15,2013-11-14 16:30:00,
2013-11-14 10:40:00,53.1,30.6,30.21,South,182,9.0,15.0,42,0.00,,,0.00,Wunderground v.1.15,2013-11-14 16:40:00,
2013-11-14 10:50:00,53.4,29.7,30.21,South,183,13.0,19.0,40,0.00,,,0.00,Wunderground v.1.15,2013-11-14 16:50:00,
2013-11-14 11:00:00,53.8,30.0,30.20,South,187,8.0,9.0,40,0.00,,,0.00,Wunderground v.1.15,2013-11-14 17:00:00,
2013-11-14 11:10:00,54.3,31.1,30.19,South,183,10.0,10.0,41,0.00,,,0.00,Wunderground v.1.15,2013-11-14 17:10:00,
2013-11-14 11:20:00,54.0,31.4,30.18,SSE,161,11.0,11.0,42,0.00,,,0.00,Wunderground v.1.15,2013-11-14 17:20:00,
2013-11-14 11:30:00,54.1,31.5,30.18,South,181,10.0,11.0,42,0.00,,,0.00,Wunderground v.1.15,2013-11-14 17:30:00,
2013-11-14 11:40:00,54.8,31.5,30.17,South,174,8.0,10.0,41,0.00,,,0.00,Wunderground v.1.15,2013-11-14 17:40:00,
2013-11-14 11:50:00,56.3,32.3,30.16,SSE,167,8.0,10.0,40,0.00,,,0.00,Wunderground v.1.15,2013-11-14 17:50:00,
2013-11-14 12:00:00,56.4,33.0,30.15,SSW,206,12.0,12.0,41,0.00,,,0.00,Wunderground v.1.15,2013-11-14 18:00:00,
2013-11-14 12:10:00,57.1,33.0,30.14,SSE,150,10.0,14.0,40,0.00,,,0.00,Wunderground v.1.15,2013-11-14 18:10:00,
2013-11-14 12:20:00,57.9,34.3,30.13,South,179,10.0,10.0,41,0.00,,,0.00,Wunderground v.1.15,2013-11-14 18:20:00,
2013-11-14 12:30:00,59.1,34.8,30.12,South,179,8.0,9.0,40,0.00,,,0.00,Wunderground v.1.15,2013-11-14 18:30:00,
2013-11-14 12:40:00,60.7,36.2,30.12,SSW,192,10.0,11.0,40,0.00,,,0.00,Wunderground v.1.15,2013-11-14 18:40:00,
2013-11-14 12:50:00,60.2,35.8,30.11,South,182,9.0,13.0,40,0.00,,,0.00,Wunderground v.1.15,2013-11-14 18:50:00,
2013-11-14 13:00:00,58.8,34.5,30.10,SSW,200,12.0,12.0,40,0.00,,,0.00,Wunderground v.1.15,2013-11-14 19:00:00,
2013-11-14 13:10:00,57.8,34.8,30.10,South,174,11.0,11.0,42,0.00,,,0.00,Wunderground v.1.15,2013-11-14 19:10:00,
2013-11-14 13:20:00,58.2,35.2,30.09,SSE,151,9.0,14.0,42,0.00,,,0.00,Wunderground v.1.15,2013-11-14 19:20:00,
2013-11-14 13:30:00,59.0,35.9,30.09,SSW,200,9.0,9.0,42,0.00,,,0.00,Wunderground v.1.15,2013-11-14 19:30:00,
2013-11-14 13:40:00,59.7,36.6,30.08,South,186,8.0,8.0,42,0.00,,,0.00,Wunderground v.1.15,2013-11-14 19:40:00,
2013-11-14 13:50:00,60.5,36.7,30.07,South,178,12.0,12.0,41,0.00,,,0.00,Wunderground v.1.15,2013-11-14 19:50:00,
2013-11-14 14:00:00,59.7,36.6,30.06,South,182,8.0,8.0,42,0.00,,,0.00,Wunderground v.1.15,2013-11-14 20:00:00,
2013-11-14 14:10:00,60.3,36.5,30.06,SW,232,6.0,8.0,41,0.00,,,0.00,Wunderground v.1.15,2013-11-14 20:10:00,
2013-11-14 14:20:00,60.2,36.4,30.06,South,175,7.0,11.0,41,0.00,,,0.00,Wunderground v.1.15,2013-11-14 20:20:00,
2013-11-14 14:30:00,60.1,36.3,30.05,South,189,7.0,7.0,41,0.00,,,0.00,Wunderground v.1.15,2013-11-14 20:30:00,
2013-11-14 14:40:00,60.2,36.4,30.05,South,181,8.0,8.0,41,0.00,,,0.00,Wunderground v.1.15,2013-11-14 20:40:00,
2013-11-14 14:50:00,60.4,35.9,30.05,South,178,9.0,14.0,40,0.00,,,0.00,Wunderground v.1.15,2013-11-14 20:50:00,
2013-11-14 15:00:00,60.4,35.3,30.04,South,182,10.0,10.0,39,0.00,,,0.00,Wunderground v.1.15,2013-11-14 21:00:00,
2013-11-14 15:10:00,60.9,35.8,30.04,South,169,6.0,10.0,39,0.00,,,0.00,Wunderground v.1.15,2013-11-14 21:10:00,
2013-11-14 15:20:00,61.1,35.3,30.04,South,175,10.0,12.0,38,0.00,,,0.00,Wunderground v.1.15,2013-11-14 21:20:00,
2013-11-14 15:30:00,61.3,35.5,30.03,South,180,10.0,10.0,38,0.00,,,0.00,Wunderground v.1.15,2013-11-14 21:30:00,
2013-11-14 15:40:00,61.4,34.9,30.02,South,172,10.0,10.0,37,0.00,,,0.00,Wunderground v.1.15,2013-11-14 21:40:00,
2013-11-14 15:50:00,61.9,35.3,30.02,SSE,161,10.0,14.0,37,0.00,,,0.00,Wunderground v.1.15,2013-11-14 21:50:00,
2013-11-14 16:00:00,61.4,34.9,30.01,South,178,10.0,10.0,37,0.00,,,0.00,Wunderground v.1.15,2013-11-14 22:00:00,
2013-11-14 16:10:00,61.3,35.5,30.00,South,180,9.0,9.0,38,0.00,,,0.00,Wunderground v.1.15,2013-11-14 22:10:00,
2013-11-14 16:20:00,61.5,35.6,30.01,South,169,9.0,11.0,38,0.00,,,0.00,Wunderground v.1.15,2013-11-14 22:20:00,
2013-11-14 16:30:00,61.3,35.5,30.00,South,169,10.0,10.0,38,0.00,,,0.00,Wunderground v.1.15,2013-11-14 22:30:00,
2013-11-14 16:40:00,60.9,36.4,30.00,South,174,11.0,11.0,40,0.00,,,0.00,Wunderground v.1.15,2013-11-14 22:40:00,
2013-11-14 16:50:00,60.5,36.7,30.00,South,184,8.0,8.0,41,0.00,,,0.00,Wunderground v.1.15,2013-11-14 22:50:00,
2013-11-14 17:00:00,59.9,37.9,29.99,SSE,167,7.0,7.0,44,0.00,,,0.00,Wunderground v.1.15,2013-11-14 23:00:00,
2013-11-14 17:10:00,59.4,38.0,29.99,South,169,6.0,6.0,45,0.00,,,0.00,Wunderground v.1.15,2013-11-14 23:10:00,
2013-11-14 17:20:00,58.9,38.7,29.99,South,169,6.0,7.0,47,0.00,,,0.00,Wunderground v.1.15,2013-11-14 23:20:00,
2013-11-14 17:30:00,58.5,39.4,29.99,South,169,5.0,5.0,49,0.00,,,0.00,Wunderground v.1.15,2013-11-14 23:30:00,
2013-11-14 17:40:00,58.1,39.5,30.00,South,169,5.0,5.0,50,0.00,,,0.00,Wunderground v.1.15,2013-11-14 23:40:00,
2013-11-14 17:50:00,57.5,40.0,30.00,South,169,2.0,2.0,52,0.00,,,0.00,Wunderground v.1.15,2013-11-14 23:50:00,
2013-11-14 18:00:00,56.9,39.9,30.00,South,169,1.0,1.0,53,0.00,,,0.00,Wunderground v.1.15,2013-11-15 00:00:00,
2013-11-14 18:10:00,56.4,40.4,30.00,South,169,2.0,4.0,55,0.00,,,0.00,Wunderground v.1.15,2013-11-15 00:10:00,
2013-11-14 18:20:00,56.1,40.6,30.00,South,169,2.0,4.0,56,0.00,,,0.00,Wunderground v.1.15,2013-11-15 00:20:00,
2013-11-14 18:30:00,55.9,41.3,30.00,South,169,6.0,6.0,58,0.00,,,0.00,Wunderground v.1.15,2013-11-15 00:30:00,
2013-11-14 18:40:00,55.9,41.3,30.00,South,170,6.0,7.0,58,0.00,,,0.00,Wunderground v.1.15,2013-11-15 00:40:00,
2013-11-14 18:50:00,56.2,41.6,29.99,SSE,167,8.0,8.0,58,0.00,,,0.00,Wunderground v.1.15,2013-11-15 00:50:00,
2013-11-14 19:00:00,55.9,41.8,30.00,South,171,7.0,8.0,59,0.00,,,0.00,Wunderground v.1.15,2013-11-15 01:00:00,
2013-11-14 19:10:00,55.7,41.6,30.01,South,182,7.0,7.0,59,0.00,,,0.00,Wunderground v.1.15,2013-11-15 01:10:00,
2013-11-14 19:20:00,55.3,41.6,30.01,South,179,6.0,8.0,60,0.00,,,0.00,Wunderground v.1.15,2013-11-15 01:20:00,
2013-11-14 19:30:00,55.1,41.9,30.02,South,184,5.0,5.0,61,0.00,,,0.00,Wunderground v.1.15,2013-11-15 01:30:00,
2013-11-14 19:40:00,54.8,41.6,30.02,South,187,4.0,4.0,61,0.00,,,0.00,Wunderground v.1.15,2013-11-15 01:40:00,
2013-11-14 19:50:00,54.9,41.7,30.03,South,190,4.0,4.0,61,0.00,,,0.00,Wunderground v.1.15,2013-11-15 01:50:00,
2013-11-14 20:00:00,54.6,41.4,30.03,South,190,3.0,3.0,61,0.00,,,0.00,Wunderground v.1.15,2013-11-15 02:00:00,
2013-11-14 20:10:00,54.1,41.4,30.03,South,189,3.0,3.0,62,0.00,,,0.00,Wunderground v.1.15,2013-11-15 02:10:00,
2013-11-14 20:20:00,53.7,41.4,30.03,South,175,4.0,4.0,63,0.00,,,0.00,Wunderground v.1.15,2013-11-15 02:20:00,
2013-11-14 20:30:00,53.4,41.1,30.03,South,178,4.0,4.0,63,0.00,,,0.00,Wunderground v.1.15,2013-11-15 02:30:00,
2013-11-14 20:40:00,53.1,41.2,30.02,South,178,3.0,4.0,64,0.00,,,0.00,Wunderground v.1.15,2013-11-15 02:40:00,
2013-11-14 20:50:00,52.4,41.4,30.02,South,178,3.0,3.0,66,0.00,,,0.00,Wunderground v.1.15,2013-11-15 02:50:00,
2013-11-14 21:00:00,52.1,41.1,30.03,South,178,1.0,1.0,66,0.00,,,0.00,Wunderground v.1.15,2013-11-15 03:00:00,
2013-11-14 21:10:00,51.8,41.2,30.03,South,178,1.0,1.0,67,0.00,,,0.00,Wunderground v.1.15,2013-11-15 03:10:00,
2013-11-14 21:20:00,51.4,40.8,30.03,South,178,0.0,0.0,67,0.00,,,0.00,Wunderground v.1.15,2013-11-15 03:20:00,
2013-11-14 21:30:00,50.9,40.7,30.03,South,178,0.0,0.0,68,0.00,,,0.00,Wunderground v.1.15,2013-11-15 03:30:00,
2013-11-14 21:40:00,50.4,40.6,30.04,South,178,0.0,0.0,69,0.00,,,0.00,Wunderground v.1.15,2013-11-15 03:40:00,
2013-11-14 21:50:00,49.7,40.7,30.03,South,178,0.0,0.0,71,0.00,,,0.00,Wunderground v.1.15,2013-11-15 03:50:00,
2013-11-14 22:00:00,49.3,40.7,30.03,South,178,0.0,0.0,72,0.00,,,0.00,Wunderground v.1.15,2013-11-15 04:00:00,
2013-11-14 22:10:00,49.0,40.7,30.03,South,178,0.0,0.0,73,0.00,,,0.00,Wunderground v.1.15,2013-11-15 04:10:00,
2013-11-14 22:20:00,48.8,40.5,30.02,South,178,0.0,0.0,73,0.00,,,0.00,Wunderground v.1.15,2013-11-15 04:20:00,
2013-11-14 22:30:00,48.6,40.7,30.02,South,178,0.0,0.0,74,0.00,,,0.00,Wunderground v.1.15,2013-11-15 04:30:00,
2013-11-14 22:40:00,48.3,40.7,30.02,South,178,0.0,0.0,75,0.00,,,0.00,Wunderground v.1.15,2013-11-15 04:40:00,
2013-11-14 22:50:00,48.1,40.5,30.02,South,178,0.0,0.0,75,0.00,,,0.00,Wunderground v.1.15,2013-11-15 04:50:00,
2013-11-14 23:00:00,48.1,40.9,30.02,South,178,0.0,0.0,76,0.00,,,0.00,Wunderground v.1.15,2013-11-15 05:00:00,
2013-11-14 23:10:00,48.0,40.8,30.02,South,178,0.0,0.0,76,0.00,,,0.00,Wunderground v.1.15,2013-11-15 05:10:00,
2013-11-14 23:20:00,48.2,41.0,30.01,South,178,0.0,1.0,76,0.00,,,0.00,Wunderground v.1.15,2013-11-15 05:20:00,
2013-11-14 23:30:00,48.2,40.6,30.02,South,178,0.0,0.0,75,0.00,,,0.00,Wunderground v.1.15,2013-11-15 05:30:00,
2013-11-14 23:40:00,48.0,40.5,30.01,South,178,0.0,0.0,75,0.00,,,0.00,Wunderground v.1.15,2013-11-15 05:40:00,
2013-11-14 23:50:00,47.4,40.6,30.01,South,178,0.0,0.0,77,0.00,,,0.00,Wunderground v.1.15,2013-11-15 05:50:00,